Terminal Aerodrome Forecast
Issued by NWS

Home | Current Version | Previous Version | Graphics & Text | Print | Product List | Glossary On
Versions: 1 2 3 4 5 6 7 8 9 10 11 12 13 14 15 16 17 18 19 20 21 22 23 24 25 26 27 28 29 30 31
000
FTUS43 KBIS 240030 AAB
TAFDIK
TAF AMD
KDIK 240030Z 2401/2424 05011KT 6SM BR OVC009
     FM240300 04012KT P6SM SCT015
     FM241900 36005KT P6SM BKN015
     FM242300 10004KT P6SM BKN110=

USA.gov is the U.S. government's official web portal to all federal, state and local government web resources and services.